This is the latest recevied weather packets stored in our database for station/object SQ9NFI-4. If no packets are shown the sender has not sent any weather packets the latest 10 day(s).
| Time | Temp. | Humidity | Pressure | Rain* | Wind** | Luminosity | Snow |
|---|---|---|---|---|---|---|---|
| 1777441215 | 5° C | 52% | 1025.4 hPa | 0 mm | - | 144 W/m² | - |
| 1777440915 | 3.33° C | 54% | 1025.4 hPa | 0 mm | - | 83 W/m² | - |
| 1777440616 | 3.89° C | 54% | 1025.4 hPa | 0 mm | - | 76 W/m² | - |
| 1777440315 | 3.89° C | 54% | 1025.4 hPa | 0 mm | - | 65 W/m² | - |
| 1777440015 | 4.44° C | 54% | 1025.1 hPa | 0 mm | - | 171 W/m² | - |
| 1777439715 | 4.44° C | 56% | 1025.1 hPa | 0 mm | - | 140 W/m² | - |
| 1777439416 | 5° C | 57% | 1025.1 hPa | 0 mm | - | 133 W/m² | - |
| 1777439115 | 4.44° C | 59% | 1025.1 hPa | 0 mm | - | 114 W/m² | - |
| 1777438816 | 4.44° C | 59% | 1025.1 hPa | 0 mm | - | 102 W/m² | - |
| 1777438516 | 3.33° C | 64% | 1025.1 hPa | 0 mm | - | 81 W/m² | - |
| 1777438216 | 2.22° C | 67% | 1025.1 hPa | 0 mm | - | 76 W/m² | - |
| 1777437916 | 1.67° C | 69% | 1024.7 hPa | 0 mm | - | 76 W/m² | - |
| 1777437616 | 1.67° C | 68% | 1024.7 hPa | 0 mm | - | 69 W/m² | - |
| 1777437316 | 1.67° C | 71% | 1024.7 hPa | 0 mm | - | 59 W/m² | - |
| 1777437016 | 0.56° C | 73% | 1024.7 hPa | 0 mm | - | 52 W/m² | - |
| 1777436715 | 0° C | 74% | 1024.7 hPa | 0 mm | - | 48 W/m² | - |
| 1777436415 | 0° C | 75% | 1024.7 hPa | 0 mm | - | 42 W/m² | - |
| 1777436115 | -0.56° C | 76% | 1024.7 hPa | 0 mm | - | 36 W/m² | - |
| 1777435815 | -0.56° C | 78% | 1024.4 hPa | 0 mm | - | 31 W/m² | - |
| 1777435515 | -0.56° C | 80% | 1024.4 hPa | 0 mm | - | 27 W/m² | - |
| 1777435215 | -1.11° C | 82% | 1024.4 hPa | 0 mm | - | 25 W/m² | - |
| 1777434916 | -1.67° C | 84% | 1024.4 hPa | 0 mm | - | 19 W/m² | - |
| 1777434615 | -1.67° C | 85% | 1024.4 hPa | 0 mm | - | 15 W/m² | - |
| 1777434315 | -2.22° C | 86% | 1024.4 hPa | 0 mm | - | 11 W/m² | - |
| 1777434015 | -2.22° C | 87% | 1024.4 hPa | 0 mm | - | 8 W/m² | - |
* Rain latest hour (hover to see other rain measurements)
** Current wind speed in m/s (hover to see current wind gust speed)